Sagar Sampada — VWXS — position and weather

sailwx.info

Track history (hours):
 
Tides and Currents Weather Stations Pressure Air Temp Water Temp Dewpoint Dewpoint Depression Visibility Wind Speed Wind Dir Waves Ship Positions

Oceanographic research ship Sagar Sampada (India)

Detailed information on ship capabilities available from University of Delaware's Ocean Information Center.

Last reported at 2018-May-20 17:30 UTC. Time now 2018-May-20 17:47 UTC.
Position N 20°49' E 070°17'.

Type: Other ship. MMSI: 419323000.

Date/timePositionNaut miles runAvg speedWind from/ knotsBaromVisibWave heightAir tempDewpointWater temp
2018-May-20 17:30N 20°49' E 070°17'0 0.1
2018-May-20 16:40N 20°49' E 070°17'0 2.1
2018-May-20 16:29N 20°49' E 070°17'3 6.9
2018-May-20 15:59N 20°46' E 070°15'2 3.5
2018-May-20 15:26N 20°45' E 070°14'310.2
2018-May-20 15:08N 20°42' E 070°12'323.5 220 / 121005.1 29.9
2018-May-20 14:59N 20°45' E 070°14'4 3.6
2018-May-20 13:55N 20°42' E 070°12'0 0.7
2018-May-20 13:30N 20°42' E 070°11'0 0.3
2018-May-20 13:00N 20°41' E 070°11'1 1.2
2018-May-20 12:30N 20°41' E 070°11'411.6
2018-May-20 12:08N 20°42' E 070°06'612.0 230 / 191004.0 30.9
2018-May-20 11:39N 20°36' E 070°07'8 7.4
2018-May-20 10:36N 20°30' E 070°02'1 7.3
2018-May-20 10:30N 20°30' E 070°01'6 7.3
2018-May-20 09:39N 20°25' E 069°57'1 7.2
2018-May-20 09:27N 20°24' E 069°56'3 7.2
2018-May-20 08:59N 20°21' E 069°54'3 7.8
2018-May-20 08:38N 20°18' E 069°54'213.1 220 / 161005.4 31.2
2018-May-20 08:30N 20°18' E 069°52'12 4.9
2018-May-20 06:08N 20°12' E 069°42'10 9.7 240 / 171007.0 31.1
2018-May-20 05:03N 20°04' E 069°35'0 7.4
2018-May-20 05:00N 20°04' E 069°35'4 2.9
2018-May-20 03:37N 20°01' E 069°32'0 1.0
2018-May-20 03:30N 20°01' E 069°32'0 0.8
2018-May-20 03:00N 20°01' E 069°32'1 1.7
2018-May-20 02:25N 20°01' E 069°31'57 2.5
2018-May-19 03:56N 19°04' E 069°28'0 0.9
2018-May-19 03:27N 19°04' E 069°28'3 6.3
2018-May-19 03:00N 19°03' E 069°31'615.2
2018-May-19 02:38N 19°00' E 069°36'321.9 210 / 141006.6 30.4
2018-May-19 02:30N 19°02' E 069°34'3 6.5
2018-May-19 01:59N 19°01' E 069°37'2 3.2
2018-May-19 01:30N 19°00' E 069°39'1 1.4
2018-May-19 00:59N 19°01' E 069°39'1 1.2
2018-May-19 00:29N 19°01' E 069°38'3 7.8
2018-May-19 00:08N 19°00' E 069°36'325.3 240 / 14 29.6
2018-May-19 00:00N 19°02' E 069°38'1 1.3
2018-May-18 23:29N 19°03' E 069°38'10 4.3
2018-May-18 21:08N 19°06' E 069°48'3 7.6 200 / 17 29.6
2018-May-18 20:45N 19°03' E 069°49'0 1.3
2018-May-18 20:23N 19°04' E 069°49'11 4.9
2018-May-18 18:08N 19°00' E 070°00'6 1.9 190 / 161005.7 30.0
2018-May-18 15:08N 19°00' E 070°06'711.4 220 / 121005.7 30.1
2018-May-18 14:31N 19°01' E 070°13'0 7.2
2018-May-18 14:29N 19°01' E 070°14'4 7.3
2018-May-18 13:53N 19°00' E 070°18'3 7.1
2018-May-18 13:29N 18°60' E 070°21'6 6.9
2018-May-18 12:36N 18°59' E 070°28'3 5.7
2018-May-18 12:08N 19°00' E 070°30'279.0 200 / 121004.7 30.6
2018-May-18 12:06N 18°58' E 070°31'16 5.5
2018-May-18 09:08N 18°54' E 070°48'17 5.7 200 / 141006.0 30.6
2018-May-18 06:08N 18°54' E 071°06'23 7.6 180 / 141007.9 30.7
2018-May-18 03:08N 18°54' E 071°30'1 7.3 150 / 161008.0 30.4
2018-May-18 02:55N 18°54' E 071°28'3 6.6
2018-May-18 02:30N 18°54' E 071°31'3 6.7
2018-May-18 02:00N 18°53' E 071°35'3 6.6
2018-May-18 01:30N 18°53' E 071°38'4 6.5
2018-May-18 00:56N 18°53' E 071°42'3 6.6
2018-May-18 00:30N 18°53' E 071°45'3 7.3
2018-May-18 00:08N 18°54' E 071°48'7 6.3 190 / 141005.8 29.9
2018-May-17 23:05N 18°53' E 071°55'1 6.4
2018-May-17 23:00N 18°53' E 071°55'10 5.4
2018-May-17 21:08N 18°54' E 072°06'18 6.0 190 / 191004.8 30.4
2018-May-17 18:08N 18°48' E 072°24'14 5.0 160 / 191006.6 30.7
2018-May-17 15:25N 18°50' E 072°38'3 6.0
2018-May-17 14:58N 18°50' E 072°41'2 6.5
2018-May-17 14:38N 18°48' E 072°42'320.6 140 / 161004.6 30.9
2018-May-17 14:28N 18°50' E 072°44'3 5.5
2018-May-17 14:00N 18°51' E 072°47'7 4.0
2018-May-17 12:08N 18°54' E 072°54'0 0.0 240 / 161002.1 31.6
2018-May-17 09:08N 18°54' E 072°54'0 0.0 220 / 121004.1 31.8
2018-May-17 06:08N 18°54' E 072°54'0 0.0 210 / 81006.7 32.4
2018-May-17 03:08N 18°54' E 072°54'0 0.0 210 / 641007.5 32.0
2018-May-16 23:38N 18°54' E 072°54'0 0.0 020 / 641005.4 30.0
2018-May-16 18:08N 18°54' E 072°54'0 0.0 210 / 641005.7 30.0
2018-May-16 15:08N 18°54' E 072°54'2 6.3 220 / 641004.9 30.2
2018-May-16 14:44N 18°56' E 072°52'0 0.0
2018-May-16 14:26N 18°56' E 072°52'0 0.0
2018-May-16 13:56N 18°56' E 072°52'2 1.3
2018-May-16 12:08N 18°54' E 072°54'0 0.0 360 / 641003.6 30.8
2018-May-16 06:08N 18°54' E 072°54'0 0.0 210 / 641007.4 33.6
2018-May-16 03:08N 18°54' E 072°54'0 0.0 030 / 21008.0 31.4
2018-May-16 00:08N 18°54' E 072°54'2 0.4 040 / 641006.0 29.7
2018-May-15 17:44N 18°56' E 072°52'2 0.8
2018-May-15 14:38N 18°54' E 072°54'2 2.3 230 / 641005.9 30.4
2018-May-15 13:37N 18°54' E 072°52'1 6.0
2018-May-15 13:23N 18°53' E 072°51'6 4.7
2018-May-15 12:08N 18°48' E 072°48'6 2.0 330 / 621004.9 30.4
2018-May-15 09:08N 18°54' E 072°48'0 0.0 200 / 141006.4 30.8
2018-May-15 06:08N 18°54' E 072°48'8 2.8 190 / 81009.2 31.0
2018-May-15 03:08N 18°48' E 072°42'8 2.4 310 / 21009.5 30.7
2018-May-14 23:38N 18°42' E 072°36'0 0.0 240 / 81007.0 29.5
2018-May-14 21:08N 18°42' E 072°36'1 0.6 230 / 101006.5 29.5
2018-May-14 19:28N 18°43' E 072°37'1 1.1
2018-May-14 19:00N 18°43' E 072°37'0 0.9
2018-May-14 18:30N 18°44' E 072°37'0 0.7
2018-May-14 18:00N 18°44' E 072°36'2 5.0
2018-May-14 17:38N 18°42' E 072°36'217.3 260 / 141007.7 29.8
2018-May-14 17:30N 18°44' E 072°36'4 1.6
2018-May-14 15:08N 18°48' E 072°36'211.3 210 / 121006.9 30.0
2018-May-14 14:57N 18°46' E 072°36'0 0.9
2018-May-14 14:28N 18°47' E 072°36'1 1.5
2018-May-14 13:59N 18°47' E 072°36'0 0.4
2018-May-14 13:30N 18°47' E 072°36'1 1.0
2018-May-14 12:18N 18°47' E 072°35'0 0.4
2018-May-14 11:41N 18°47' E 072°36'0 2.3
2018-May-14 11:28N 18°47' E 072°35'0 0.3
2018-May-14 10:50N 18°47' E 072°35'0 0.2
2018-May-14 10:30N 18°47' E 072°35'1 1.1
2018-May-14 09:08N 18°48' E 072°36'0 0.0 200 / 81007.7 30.6
2018-May-14 06:08N 18°48' E 072°36'6 1.9 240 / 61010.2 31.4
2018-May-14 03:08N 18°48' E 072°30'16 7.3 170 / 21010.0 30.6
2018-May-14 00:54N 18°52' E 072°14'9 6.0
2018-May-13 23:29N 18°53' E 072°05'3 6.2
2018-May-13 22:59N 18°52' E 072°01'3 6.0
2018-May-13 22:29N 18°52' E 071°58'6 4.3
2018-May-13 21:08N 18°48' E 071°54'3347.9 250 / 211006.4 29.4
2018-May-13 21:07N 18°49' E 071°51'1 5.6
2018-May-13 21:00N 18°48' E 071°51'3 5.6
2018-May-13 20:24N 18°46' E 071°49'2 5.6
2018-May-13 20:00N 18°44' E 071°47'2 1.1
2018-May-13 18:08N 18°42' E 071°48'4 7.3 250 / 171007.0 29.6
2018-May-13 17:37N 18°44' E 071°45'0 1.1
2018-May-13 17:21N 18°44' E 071°45'1 1.1
2018-May-13 16:00N 18°45' E 071°43'1 1.1
2018-May-13 15:30N 18°46' E 071°43'1 1.3
2018-May-13 15:00N 18°46' E 071°42'3 6.1
2018-May-13 14:30N 18°47' E 071°40'4 6.2
2018-May-13 13:49N 18°50' E 071°36'2 6.2
2018-May-13 13:29N 18°51' E 071°34'3 6.1
2018-May-13 13:00N 18°52' E 071°31'3 5.9
2018-May-13 12:30N 18°53' E 071°28'411.2
2018-May-13 12:08N 18°54' E 071°24'1 8.5 270 / 61006.2 32.5
2018-May-13 11:59N 18°54' E 071°25'4 5.8
2018-May-13 11:15N 18°54' E 071°21'2 5.0
2018-May-13 10:45N 18°54' E 071°18'2 6.0
2018-May-13 10:23N 18°54' E 071°16'9 7.3
2018-May-13 09:08N 18°54' E 071°06'13 4.3 080 / 581007.7 31.6
2018-May-13 06:08N 18°48' E 070°54'0 0.0 020 / 621009.2 31.6
2018-May-13 02:38N 18°48' E 070°54'0 0.0 340 / 641008.3 30.7
2018-May-13 00:08N 18°48' E 070°54'4 2.5 040 / 621007.0 29.1
2018-May-12 22:35N 18°50' E 070°50'0 0.8
2018-May-12 22:29N 18°50' E 070°50'5 3.4
2018-May-12 21:08N 18°54' E 070°48'0 0.0 020 / 641007.0 29.3
2018-May-12 18:08N 18°54' E 070°48'1 6.0 350 / 641007.7 29.5
2018-May-12 18:01N 18°54' E 070°49'0 0.9
2018-May-12 17:58N 18°54' E 070°49'2 1.0
2018-May-12 15:47N 18°55' E 070°47'0 1.2
2018-May-12 15:29N 18°55' E 070°46'1 1.1
2018-May-12 14:55N 18°55' E 070°46'0 1.1
2018-May-12 14:30N 18°55' E 070°45'1 1.2
2018-May-12 14:00N 18°55' E 070°44'2 1.3
2018-May-12 12:08N 18°54' E 070°42'2 3.5 340 / 621007.0 30.3
2018-May-12 11:30N 18°55' E 070°44'3 5.1
2018-May-12 11:00N 18°55' E 070°46'3 5.2
2018-May-12 10:30N 18°55' E 070°49'3 5.3
2018-May-12 10:00N 18°56' E 070°52'3 5.5
2018-May-12 09:27N 18°56' E 070°55'2 6.4
2018-May-12 09:08N 18°54' E 070°54'429.2 230 / 581008.9 30.1
2018-May-12 08:59N 18°56' E 070°58'3 5.5
2018-May-12 08:30N 18°56' E 071°01'0 0.6
2018-May-12 07:54N 18°56' E 071°01'6 3.3
2018-May-12 06:08N 19°00' E 071°06'0 0.0 200 / 561010.4 30.1
2018-May-12 03:08N 19°00' E 071°06'18 6.0 300 / 561009.7 29.6
2018-May-12 00:08N 18°54' E 071°24'2 7.0 260 / 581008.2 29.4
2018-May-11 23:51N 18°52' E 071°23'6 5.9
2018-May-11 22:46N 18°51' E 071°30'2 6.0
2018-May-11 22:30N 18°51' E 071°31'11 7.7
2018-May-11 21:08N 18°48' E 071°42'297.3 270 / 581007.4 29.2
2018-May-11 21:06N 18°49' E 071°40'1 6.1
2018-May-11 21:00N 18°49' E 071°41'4 6.0
2018-May-11 20:16N 18°49' E 071°45'1 5.3
2018-May-11 20:00N 18°49' E 071°47'1 2.3
2018-May-11 19:28N 18°49' E 071°48'4 6.1
2018-May-11 18:52N 18°51' E 071°51'2 6.1
2018-May-11 18:30N 18°52' E 071°54'2 6.5
2018-May-11 18:08N 18°54' E 071°54'315.0 210 / 581007.4 29.5
2018-May-11 17:56N 18°53' E 071°57'2 5.7
2018-May-11 17:30N 18°53' E 071°59'3 5.7
2018-May-11 17:00N 18°53' E 072°02'3 5.6
2018-May-11 16:30N 18°53' E 072°06'3 5.7
2018-May-11 16:00N 18°53' E 072°08'3 5.2
2018-May-11 15:30N 18°54' E 072°11'1 2.7
2018-May-11 15:08N 18°54' E 072°12'217.6 220 / 581006.2 30.0
2018-May-11 14:59N 18°56' E 072°13'3 5.8
2018-May-11 14:30N 18°58' E 072°15'3 5.8
2018-May-11 14:00N 19°01' E 072°17'3 5.8
2018-May-11 13:28N 19°03' E 072°19'2 3.4
2018-May-11 12:52N 19°03' E 072°21'4 5.4
2018-May-11 12:08N 19°00' E 072°24'4162.9 200 / 621005.5 30.6
2018-May-11 12:06N 19°03' E 072°21'0 0.9
2018-May-11 12:00N 19°03' E 072°21'1 1.5
2018-May-11 11:29N 19°03' E 072°22'3 5.9
2018-May-11 11:00N 19°03' E 072°25'2 3.5
2018-May-11 10:26N 19°03' E 072°27'1 0.8
2018-May-11 09:46N 19°03' E 072°27'0 0.7
2018-May-11 09:29N 19°03' E 072°26'412.7
2018-May-11 09:08N 19°06' E 072°30'6 1.9 280 / 581007.2 30.5
2018-May-11 06:08N 19°06' E 072°24'7 4.6 080 / 561009.7 31.8
2018-May-11 04:39N 19°03' E 072°17'3 1.8
2018-May-11 03:08N 19°06' E 072°18'21 7.1 200 / 621010.4 30.6
2018-May-11 00:08N 18°48' E 072°06'6 6.2 310 / 581009.5 29.0
2018-May-10 23:07N 18°42' E 072°06'2 6.9
2018-May-10 22:45N 18°39' E 072°05'8 6.7
2018-May-10 21:30N 18°31' E 072°04'2 6.6
2018-May-10 21:08N 18°30' E 072°06'325.3 310 / 581008.4 29.4
2018-May-10 20:59N 18°28' E 072°03'22 6.5
2018-May-10 17:38N 18°06' E 072°00'   310 / 581009.9 29.7
Track history (hours):
 
Tides and Currents Weather Stations Pressure Air Temp Water Temp Dewpoint Dewpoint Depression Visibility Wind Speed Wind Dir Waves Ship Positions

Oceanographic research ship Sagar Sampada (India)

Detailed information on ship capabilities available from University of Delaware's Ocean Information Center.

Last reported at 2018-May-20 17:30 UTC. Time now 2018-May-20 17:47 UTC.
Position N 20°49' E 070°17'.

Type: Other ship. MMSI: 419323000.

Date/timePositionNaut miles runAvg speedWind from/ knotsBaromVisibWave heightAir tempDewpointWater temp
2018-May-20 17:30N 20°49' E 070°17'0 0.1
2018-May-20 16:40N 20°49' E 070°17'0 2.1
2018-May-20 16:29N 20°49' E 070°17'3 6.9
2018-May-20 15:59N 20°46' E 070°15'2 3.5
2018-May-20 15:26N 20°45' E 070°14'310.2
2018-May-20 15:08N 20°42' E 070°12'323.5 220 / 121005.1 29.9
2018-May-20 14:59N 20°45' E 070°14'4 3.6
2018-May-20 13:55N 20°42' E 070°12'0 0.7
2018-May-20 13:30N 20°42' E 070°11'0 0.3
2018-May-20 13:00N 20°41' E 070°11'1 1.2
2018-May-20 12:30N 20°41' E 070°11'411.6
2018-May-20 12:08N 20°42' E 070°06'612.0 230 / 191004.0 30.9
2018-May-20 11:39N 20°36' E 070°07'8 7.4
2018-May-20 10:36N 20°30' E 070°02'1 7.3
2018-May-20 10:30N 20°30' E 070°01'6 7.3
2018-May-20 09:39N 20°25' E 069°57'1 7.2
2018-May-20 09:27N 20°24' E 069°56'3 7.2
2018-May-20 08:59N 20°21' E 069°54'3 7.8
2018-May-20 08:38N 20°18' E 069°54'213.1 220 / 161005.4 31.2
2018-May-20 08:30N 20°18' E 069°52'12 4.9
2018-May-20 06:08N 20°12' E 069°42'10 9.7 240 / 171007.0 31.1
2018-May-20 05:03N 20°04' E 069°35'0 7.4
2018-May-20 05:00N 20°04' E 069°35'4 2.9
2018-May-20 03:37N 20°01' E 069°32'0 1.0
2018-May-20 03:30N 20°01' E 069°32'0 0.8
2018-May-20 03:00N 20°01' E 069°32'1 1.7
2018-May-20 02:25N 20°01' E 069°31'57 2.5
2018-May-19 03:56N 19°04' E 069°28'0 0.9
2018-May-19 03:27N 19°04' E 069°28'3 6.3
2018-May-19 03:00N 19°03' E 069°31'615.2
2018-May-19 02:38N 19°00' E 069°36'321.9 210 / 141006.6 30.4
2018-May-19 02:30N 19°02' E 069°34'3 6.5
2018-May-19 01:59N 19°01' E 069°37'2 3.2
2018-May-19 01:30N 19°00' E 069°39'1 1.4
2018-May-19 00:59N 19°01' E 069°39'1 1.2
2018-May-19 00:29N 19°01' E 069°38'3 7.8
2018-May-19 00:08N 19°00' E 069°36'325.3 240 / 14 29.6
2018-May-19 00:00N 19°02' E 069°38'1 1.3
2018-May-18 23:29N 19°03' E 069°38'10 4.3
2018-May-18 21:08N 19°06' E 069°48'3 7.6 200 / 17 29.6
2018-May-18 20:45N 19°03' E 069°49'0 1.3
2018-May-18 20:23N 19°04' E 069°49'11 4.9
2018-May-18 18:08N 19°00' E 070°00'6 1.9 190 / 161005.7 30.0
2018-May-18 15:08N 19°00' E 070°06'711.4 220 / 121005.7 30.1
2018-May-18 14:31N 19°01' E 070°13'0 7.2
2018-May-18 14:29N 19°01' E 070°14'4 7.3
2018-May-18 13:53N 19°00' E 070°18'3 7.1
2018-May-18 13:29N 18°60' E 070°21'6 6.9
2018-May-18 12:36N 18°59' E 070°28'3 5.7
2018-May-18 12:08N 19°00' E 070°30'279.0 200 / 121004.7 30.6
2018-May-18 12:06N 18°58' E 070°31'16 5.5
2018-May-18 09:08N 18°54' E 070°48'17 5.7 200 / 141006.0 30.6
2018-May-18 06:08N 18°54' E 071°06'23 7.6 180 / 141007.9 30.7
2018-May-18 03:08N 18°54' E 071°30'1 7.3 150 / 161008.0 30.4
2018-May-18 02:55N 18°54' E 071°28'3 6.6
2018-May-18 02:30N 18°54' E 071°31'3 6.7
2018-May-18 02:00N 18°53' E 071°35'3 6.6
2018-May-18 01:30N 18°53' E 071°38'4 6.5
2018-May-18 00:56N 18°53' E 071°42'3 6.6
2018-May-18 00:30N 18°53' E 071°45'3 7.3
2018-May-18 00:08N 18°54' E 071°48'7 6.3 190 / 141005.8 29.9
2018-May-17 23:05N 18°53' E 071°55'1 6.4
2018-May-17 23:00N 18°53' E 071°55'10 5.4
2018-May-17 21:08N 18°54' E 072°06'18 6.0 190 / 191004.8 30.4
2018-May-17 18:08N 18°48' E 072°24'14 5.0 160 / 191006.6 30.7
2018-May-17 15:25N 18°50' E 072°38'3 6.0
2018-May-17 14:58N 18°50' E 072°41'2 6.5
2018-May-17 14:38N 18°48' E 072°42'320.6 140 / 161004.6 30.9
2018-May-17 14:28N 18°50' E 072°44'3 5.5
2018-May-17 14:00N 18°51' E 072°47'7 4.0
2018-May-17 12:08N 18°54' E 072°54'0 0.0 240 / 161002.1 31.6
2018-May-17 09:08N 18°54' E 072°54'0 0.0 220 / 121004.1 31.8
2018-May-17 06:08N 18°54' E 072°54'0 0.0 210 / 81006.7 32.4
2018-May-17 03:08N 18°54' E 072°54'0 0.0 210 / 641007.5 32.0
2018-May-16 23:38N 18°54' E 072°54'0 0.0 020 / 641005.4 30.0
2018-May-16 18:08N 18°54' E 072°54'0 0.0 210 / 641005.7 30.0
2018-May-16 15:08N 18°54' E 072°54'2 6.3 220 / 641004.9 30.2
2018-May-16 14:44N 18°56' E 072°52'0 0.0
2018-May-16 14:26N 18°56' E 072°52'0 0.0
2018-May-16 13:56N 18°56' E 072°52'2 1.3
2018-May-16 12:08N 18°54' E 072°54'0 0.0 360 / 641003.6 30.8
2018-May-16 06:08N 18°54' E 072°54'0 0.0 210 / 641007.4 33.6
2018-May-16 03:08N 18°54' E 072°54'0 0.0 030 / 21008.0 31.4
2018-May-16 00:08N 18°54' E 072°54'2 0.4 040 / 641006.0 29.7
2018-May-15 17:44N 18°56' E 072°52'2 0.8
2018-May-15 14:38N 18°54' E 072°54'2 2.3 230 / 641005.9 30.4
2018-May-15 13:37N 18°54' E 072°52'1 6.0
2018-May-15 13:23N 18°53' E 072°51'6 4.7
2018-May-15 12:08N 18°48' E 072°48'6 2.0 330 / 621004.9 30.4
2018-May-15 09:08N 18°54' E 072°48'0 0.0 200 / 141006.4 30.8
2018-May-15 06:08N 18°54' E 072°48'8 2.8 190 / 81009.2 31.0
2018-May-15 03:08N 18°48' E 072°42'8 2.4 310 / 21009.5 30.7
2018-May-14 23:38N 18°42' E 072°36'0 0.0 240 / 81007.0 29.5
2018-May-14 21:08N 18°42' E 072°36'1 0.6 230 / 101006.5 29.5
2018-May-14 19:28N 18°43' E 072°37'1 1.1
2018-May-14 19:00N 18°43' E 072°37'0 0.9
2018-May-14 18:30N 18°44' E 072°37'0 0.7
2018-May-14 18:00N 18°44' E 072°36'2 5.0
2018-May-14 17:38N 18°42' E 072°36'217.3 260 / 141007.7 29.8
2018-May-14 17:30N 18°44' E 072°36'4 1.6
2018-May-14 15:08N 18°48' E 072°36'211.3 210 / 121006.9 30.0
2018-May-14 14:57N 18°46' E 072°36'0 0.9
2018-May-14 14:28N 18°47' E 072°36'1 1.5
2018-May-14 13:59N 18°47' E 072°36'0 0.4
2018-May-14 13:30N 18°47' E 072°36'1 1.0
2018-May-14 12:18N 18°47' E 072°35'0 0.4
2018-May-14 11:41N 18°47' E 072°36'0 2.3
2018-May-14 11:28N 18°47' E 072°35'0 0.3
2018-May-14 10:50N 18°47' E 072°35'0 0.2
2018-May-14 10:30N 18°47' E 072°35'1 1.1
2018-May-14 09:08N 18°48' E 072°36'0 0.0 200 / 81007.7 30.6
2018-May-14 06:08N 18°48' E 072°36'6 1.9 240 / 61010.2 31.4
2018-May-14 03:08N 18°48' E 072°30'16 7.3 170 / 21010.0 30.6
2018-May-14 00:54N 18°52' E 072°14'9 6.0
2018-May-13 23:29N 18°53' E 072°05'3 6.2
2018-May-13 22:59N 18°52' E 072°01'3 6.0
2018-May-13 22:29N 18°52' E 071°58'6 4.3
2018-May-13 21:08N 18°48' E 071°54'3347.9 250 / 211006.4 29.4
2018-May-13 21:07N 18°49' E 071°51'1 5.6
2018-May-13 21:00N 18°48' E 071°51'3 5.6
2018-May-13 20:24N 18°46' E 071°49'2 5.6
2018-May-13 20:00N 18°44' E 071°47'2 1.1
2018-May-13 18:08N 18°42' E 071°48'4 7.3 250 / 171007.0 29.6
2018-May-13 17:37N 18°44' E 071°45'0 1.1
2018-May-13 17:21N 18°44' E 071°45'1 1.1
2018-May-13 16:00N 18°45' E 071°43'1 1.1
2018-May-13 15:30N 18°46' E 071°43'1 1.3
2018-May-13 15:00N 18°46' E 071°42'3 6.1
2018-May-13 14:30N 18°47' E 071°40'4 6.2
2018-May-13 13:49N 18°50' E 071°36'2 6.2
2018-May-13 13:29N 18°51' E 071°34'3 6.1
2018-May-13 13:00N 18°52' E 071°31'3 5.9
2018-May-13 12:30N 18°53' E 071°28'411.2
2018-May-13 12:08N 18°54' E 071°24'1 8.5 270 / 61006.2 32.5
2018-May-13 11:59N 18°54' E 071°25'4 5.8
2018-May-13 11:15N 18°54' E 071°21'2 5.0
2018-May-13 10:45N 18°54' E 071°18'2 6.0
2018-May-13 10:23N 18°54' E 071°16'9 7.3
2018-May-13 09:08N 18°54' E 071°06'13 4.3 080 / 581007.7 31.6
2018-May-13 06:08N 18°48' E 070°54'0 0.0 020 / 621009.2 31.6
2018-May-13 02:38N 18°48' E 070°54'0 0.0 340 / 641008.3 30.7
2018-May-13 00:08N 18°48' E 070°54'4 2.5 040 / 621007.0 29.1
2018-May-12 22:35N 18°50' E 070°50'0 0.8
2018-May-12 22:29N 18°50' E 070°50'5 3.4
2018-May-12 21:08N 18°54' E 070°48'0 0.0 020 / 641007.0 29.3
2018-May-12 18:08N 18°54' E 070°48'1 6.0 350 / 641007.7 29.5
2018-May-12 18:01N 18°54' E 070°49'0 0.9
2018-May-12 17:58N 18°54' E 070°49'2 1.0
2018-May-12 15:47N 18°55' E 070°47'0 1.2
2018-May-12 15:29N 18°55' E 070°46'1 1.1
2018-May-12 14:55N 18°55' E 070°46'0 1.1
2018-May-12 14:30N 18°55' E 070°45'1 1.2
2018-May-12 14:00N 18°55' E 070°44'2 1.3
2018-May-12 12:08N 18°54' E 070°42'2 3.5 340 / 621007.0 30.3
2018-May-12 11:30N 18°55' E 070°44'3 5.1
2018-May-12 11:00N 18°55' E 070°46'3 5.2
2018-May-12 10:30N 18°55' E 070°49'3 5.3
2018-May-12 10:00N 18°56' E 070°52'3 5.5
2018-May-12 09:27N 18°56' E 070°55'2 6.4
2018-May-12 09:08N 18°54' E 070°54'429.2 230 / 581008.9 30.1
2018-May-12 08:59N 18°56' E 070°58'3 5.5
2018-May-12 08:30N 18°56' E 071°01'0 0.6
2018-May-12 07:54N 18°56' E 071°01'6 3.3
2018-May-12 06:08N 19°00' E 071°06'0 0.0 200 / 561010.4 30.1
2018-May-12 03:08N 19°00' E 071°06'18 6.0 300 / 561009.7 29.6
2018-May-12 00:08N 18°54' E 071°24'2 7.0 260 / 581008.2 29.4
2018-May-11 23:51N 18°52' E 071°23'6 5.9
2018-May-11 22:46N 18°51' E 071°30'2 6.0
2018-May-11 22:30N 18°51' E 071°31'11 7.7
2018-May-11 21:08N 18°48' E 071°42'297.3 270 / 581007.4 29.2
2018-May-11 21:06N 18°49' E 071°40'1 6.1
2018-May-11 21:00N 18°49' E 071°41'4 6.0
2018-May-11 20:16N 18°49' E 071°45'1 5.3
2018-May-11 20:00N 18°49' E 071°47'1 2.3
2018-May-11 19:28N 18°49' E 071°48'4 6.1
2018-May-11 18:52N 18°51' E 071°51'2 6.1
2018-May-11 18:30N 18°52' E 071°54'2 6.5
2018-May-11 18:08N 18°54' E 071°54'315.0 210 / 581007.4 29.5
2018-May-11 17:56N 18°53' E 071°57'2 5.7
2018-May-11 17:30N 18°53' E 071°59'3 5.7
2018-May-11 17:00N 18°53' E 072°02'3 5.6
2018-May-11 16:30N 18°53' E 072°06'3 5.7
2018-May-11 16:00N 18°53' E 072°08'3 5.2
2018-May-11 15:30N 18°54' E 072°11'1 2.7
2018-May-11 15:08N 18°54' E 072°12'217.6 220 / 581006.2 30.0
2018-May-11 14:59N 18°56' E 072°13'3 5.8
2018-May-11 14:30N 18°58' E 072°15'3 5.8
2018-May-11 14:00N 19°01' E 072°17'3 5.8
2018-May-11 13:28N 19°03' E 072°19'2 3.4
2018-May-11 12:52N 19°03' E 072°21'4 5.4
2018-May-11 12:08N 19°00' E 072°24'4162.9 200 / 621005.5 30.6
2018-May-11 12:06N 19°03' E 072°21'0 0.9
2018-May-11 12:00N 19°03' E 072°21'1 1.5
2018-May-11 11:29N 19°03' E 072°22'3 5.9
2018-May-11 11:00N 19°03' E 072°25'2 3.5
2018-May-11 10:26N 19°03' E 072°27'1 0.8
2018-May-11 09:46N 19°03' E 072°27'0 0.7
2018-May-11 09:29N 19°03' E 072°26'412.7
2018-May-11 09:08N 19°06' E 072°30'6 1.9 280 / 581007.2 30.5
2018-May-11 06:08N 19°06' E 072°24'7 4.6 080 / 561009.7 31.8
2018-May-11 04:39N 19°03' E 072°17'3 1.8
2018-May-11 03:08N 19°06' E 072°18'21 7.1 200 / 621010.4 30.6
2018-May-11 00:08N 18°48' E 072°06'6 6.2 310 / 581009.5 29.0
2018-May-10 23:07N 18°42' E 072°06'2 6.9
2018-May-10 22:45N 18°39' E 072°05'8 6.7
2018-May-10 21:30N 18°31' E 072°04'2 6.6
2018-May-10 21:08N 18°30' E 072°06'325.3 310 / 581008.4 29.4
2018-May-10 20:59N 18°28' E 072°03'22 6.5
2018-May-10 17:38N 18°06' E 072°00'   310 / 581009.9 29.7

Dump ship's entire track history